Time;durP1;ratioP1;P1;durP2;ratioP2;P2;SDS_P1;SDS_P2;PMS_P1;PMS_P2;Temp;Humidity;BMP_temperature;BMP_pressure;BME280_temperature;BME280_humidity;BME280_pressure;Samples;Min_cycle;Max_cycle;Signal;HPM_P1;HPM_P2
2023/10/13 00:01:34;;;;;;;11.35;4.75;;;17.60;99.90;;;;;;5050754;28;20389;-51
2023/10/13 00:04:05;;;;;;;11.00;5.75;;;17.50;99.90;;;;;;5050478;28;20029;-49
2023/10/13 00:06:31;;;;;;;12.07;6.00;;;17.60;99.90;;;;;;5050832;28;20037;-53
2023/10/13 00:08:56;;;;;;;10.30;5.45;;;17.60;99.90;;;;;;5050447;28;20033;-55
2023/10/13 00:11:22;;;;;;;11.25;5.82;;;17.60;99.90;;;;;;5050681;28;20083;-54
2023/10/13 00:13:50;;;;;;;13.27;6.15;;;17.60;99.90;;;;;;5050349;28;20447;-52
2023/10/13 00:16:21;;;;;;;12.30;5.13;;;17.50;99.90;;;;;;5050556;28;20108;-54
2023/10/13 00:18:48;;;;;;;11.57;5.53;;;17.60;99.90;;;;;;5050379;28;20075;-54
2023/10/13 00:21:14;;;;;;;9.20;5.63;;;17.60;99.90;;;;;;5050637;28;20033;-54
2023/10/13 00:23:54;;;;;;;10.57;5.85;;;17.50;99.90;;;;;;5050357;28;20067;-55
2023/10/13 00:26:28;;;;;;;10.52;4.88;;;17.60;99.90;;;;;;5032585;28;20056;-53
2023/10/13 00:29:01;;;;;;;12.25;5.53;;;17.50;99.90;;;;;;5050187;28;20033;-52
2023/10/13 00:31:33;;;;;;;10.88;5.50;;;17.50;99.90;;;;;;5050540;28;20124;-49
2023/10/13 00:34:09;;;;;;;12.57;5.68;;;17.60;99.90;;;;;;5032565;28;20493;-52
2023/10/13 00:36:35;;;;;;;9.25;5.03;;;17.60;99.90;;;;;;5032964;28;20132;-51
2023/10/13 00:39:03;;;;;;;10.35;5.57;;;17.60;99.90;;;;;;5032425;28;20072;-53
2023/10/13 00:44:16;;;;;;;14.23;5.50;;;17.60;99.90;;;;;;5032449;28;20432;-52
2023/10/13 00:46:44;;;;;;;13.75;6.15;;;17.60;99.90;;;;;;5050485;28;20025;-55
2023/10/13 00:49:15;;;;;;;10.38;5.75;;;17.60;99.90;;;;;;5035046;28;20032;-51
2023/10/13 00:51:47;;;;;;;11.55;5.07;;;17.60;99.90;;;;;;5054211;28;20030;-55
2023/10/13 00:54:13;;;;;;;10.68;5.57;;;17.60;99.90;;;;;;5036118;28;20063;-53
2023/10/13 00:56:57;;;;;;;13.90;5.38;;;17.60;99.90;;;;;;5036469;28;20410;-51
2023/10/13 00:59:25;;;;;;;9.70;5.57;;;17.60;99.90;;;;;;5036369;28;20413;-53
2023/10/13 01:01:55;;;;;;;10.73;5.53;;;17.60;99.90;;;;;;5036368;28;20447;-51
2023/10/13 01:04:24;;;;;;;10.50;5.40;;;17.70;99.90;;;;;;5053850;28;20033;-55
2023/10/13 01:06:51;;;;;;;;;;;17.70;99.90;;;;;;5036963;28;20363;-55
2023/10/13 01:09:17;;;;;;;10.75;5.32;;;17.70;99.90;;;;;;5053649;28;20011;-53
2023/10/13 01:11:44;;;;;;;10.43;5.28;;;17.60;99.90;;;;;;5035849;28;20029;-55
2023/10/13 01:14:15;;;;;;;11.30;5.30;;;17.70;99.90;;;;;;5053712;28;20037;-55
2023/10/13 01:16:43;;;;;;;10.32;5.72;;;17.70;99.90;;;;;;5035900;28;20025;-51
2023/10/13 01:19:13;;;;;;;10.43;4.93;;;17.70;99.90;;;;;;5019227;28;20044;-54
2023/10/13 01:21:47;;;;;;;14.95;5.80;;;17.60;99.90;;;;;;5053816;28;20040;-54
2023/10/13 01:24:18;;;;;;;9.88;4.72;;;17.70;99.90;;;;;;5035457;28;20028;-55
2023/10/13 01:26:44;;;;;;;13.80;6.15;;;17.70;99.90;;;;;;5035671;28;20183;-53
2023/10/13 01:29:13;;;;;;;10.85;5.05;;;17.70;99.90;;;;;;5035351;28;20036;-54
2023/10/13 01:31:45;;;;;;;9.63;5.13;;;17.70;99.90;;;;;;5035716;28;20378;-53
2023/10/13 01:34:23;;;;;;;10.35;5.97;;;17.70;99.90;;;;;;5035420;28;20550;-54
2023/10/13 01:36:50;;;;;;;12.35;6.07;;;17.70;99.90;;;;;;5035728;28;20497;-51
2023/10/13 01:39:17;;;;;;;11.15;5.82;;;17.70;99.90;;;;;;5035303;28;20032;-56
2023/10/13 01:41:43;;;;;;;11.68;5.45;;;17.70;99.90;;;;;;5053251;28;20028;-55
2023/10/13 01:44:12;;;;;;;12.20;6.88;;;17.70;99.90;;;;;;5035191;28;20116;-52
2023/10/13 01:46:38;;;;;;;9.20;4.93;;;17.60;99.90;;;;;;5035349;28;20031;-54
2023/10/13 01:49:04;;;;;;;11.45;5.43;;;17.60;99.90;;;;;;5053027;28;20087;-55
2023/10/13 01:51:30;;;;;;;13.27;6.13;;;17.50;99.90;;;;;;5035357;28;20311;-53
2023/10/13 01:53:58;;;;;;;11.18;6.13;;;17.50;99.90;;;;;;5052837;28;20029;-50
2023/10/13 01:56:25;;;;;;;11.38;5.97;;;17.50;99.90;;;;;;5053073;28;20082;-51
2023/10/13 01:58:51;;;;;;;15.95;6.15;;;17.40;99.90;;;;;;5034899;28;20375;-52
2023/10/13 02:01:26;;;;;;;10.18;5.47;;;17.40;99.90;;;;;;5034227;28;20124;-55
2023/10/13 02:04:01;;;;;;;12.02;5.45;;;17.40;99.90;;;;;;5034907;28;20098;-54
2023/10/13 02:06:32;;;;;;;10.65;5.25;;;17.40;99.90;;;;;;5035101;28;20033;-52
2023/10/13 02:09:05;;;;;;;11.23;5.85;;;17.40;99.90;;;;;;5034660;28;20051;-53
2023/10/13 02:11:31;;;;;;;10.20;5.72;;;17.40;99.90;;;;;;5018367;28;20533;-54
2023/10/13 02:13:57;;;;;;;11.68;5.93;;;17.30;99.90;;;;;;5034601;28;20128;-54
2023/10/13 02:16:25;;;;;;;13.32;6.40;;;17.30;99.90;;;;;;5034898;28;20032;-53
2023/10/13 02:18:51;;;;;;;11.80;5.70;;;17.30;99.90;;;;;;5034435;28;20027;-56
2023/10/13 02:21:17;;;;;;;12.02;6.38;;;17.30;99.90;;;;;;5052627;28;20032;-53
2023/10/13 02:23:46;;;;;;;9.75;5.57;;;17.30;99.90;;;;;;5034573;28;20061;-54
2023/10/13 02:26:15;;;;;;;10.48;5.55;;;17.30;99.90;;;;;;5088904;23;20048;-54
2023/10/13 02:28:41;;;;;;;12.52;5.95;;;17.30;99.90;;;;;;5056191;28;20028;-52
2023/10/13 02:31:07;;;;;;;9.68;5.10;;;17.30;99.90;;;;;;5057013;28;20059;-54
2023/10/13 02:33:34;;;;;;;10.35;5.97;;;17.30;99.90;;;;;;5056367;28;20035;-51
2023/10/13 02:36:05;;;;;;;8.55;5.50;;;17.40;99.90;;;;;;5056568;28;20626;-54
2023/10/13 02:41:06;;;;;;;11.90;6.18;;;17.30;99.90;;;;;;5074382;28;20059;-54
2023/10/13 02:43:36;;;;;;;8.95;4.65;;;17.30;99.90;;;;;;5056465;28;20523;-54
2023/10/13 02:46:02;;;;;;;9.20;5.03;;;17.40;99.90;;;;;;5074473;28;20025;-54
2023/10/13 02:48:41;;;;;;;11.80;5.20;;;17.40;99.90;;;;;;5074379;28;20082;-52
2023/10/13 02:51:17;;;;;;;13.68;5.68;;;17.40;99.90;;;;;;5056347;28;20043;-51
2023/10/13 02:53:48;;;;;;;11.18;5.50;;;17.40;99.90;;;;;;5074305;28;20032;-51
2023/10/13 02:56:14;;;;;;;9.30;5.72;;;17.40;99.90;;;;;;5056678;28;20028;-54
2023/10/13 02:58:46;;;;;;;10.23;5.57;;;17.40;99.90;;;;;;5056886;28;20029;-55
2023/10/13 03:01:18;;;;;;;11.88;5.57;;;17.40;99.90;;;;;;5057016;28;20059;-53
2023/10/13 03:03:58;;;;;;;12.07;5.70;;;17.40;99.90;;;;;;5074533;28;20123;-53
2023/10/13 03:06:34;;;;;;;13.25;5.43;;;17.40;99.90;;;;;;5056289;28;20036;-55
2023/10/13 03:09:18;;;;;;;11.20;5.30;;;17.40;99.90;;;;;;5074207;28;20062;-50
2023/10/13 03:11:50;;;;;;;13.02;5.78;;;17.40;99.90;;;;;;5074904;28;20033;-49
2023/10/13 03:14:31;;;;;;;10.43;5.90;;;17.40;99.90;;;;;;5057652;28;20392;-51
2023/10/13 03:17:07;;;;;;;11.98;5.53;;;17.40;99.90;;;;;;5074801;28;20051;-53
2023/10/13 03:19:33;;;;;;;8.00;5.30;;;17.40;99.90;;;;;;5073923;28;20028;-53
2023/10/13 03:22:15;;;;;;;8.63;5.13;;;17.40;99.90;;;;;;5074033;28;20090;-55
2023/10/13 03:24:46;;;;;;;11.02;5.57;;;17.40;99.90;;;;;;5056316;28;20389;-52
2023/10/13 03:27:16;;;;;;;11.10;5.97;;;17.40;99.90;;;;;;5056147;28;20040;-52
2023/10/13 03:29:43;;;;;;;10.27;5.78;;;17.40;99.90;;;;;;5074403;28;20033;-51
2023/10/13 03:32:16;;;;;;;13.32;5.88;;;17.40;99.90;;;;;;5056248;28;20032;-51
2023/10/13 03:37:39;;;;;;;12.45;6.20;;;17.40;99.90;;;;;;5073762;28;20032;-53
2023/10/13 03:43:04;;;;;;;13.38;6.55;;;17.30;99.90;;;;;;5073671;28;20112;-55
2023/10/13 03:45:41;;;;;;;11.07;5.82;;;17.30;99.90;;;;;;5073829;28;20029;-53
2023/10/13 03:48:09;;;;;;;16.60;7.35;;;17.30;99.90;;;;;;5073579;28;20024;-54
2023/10/13 03:50:57;;;;;;;11.18;6.10;;;17.30;99.90;;;;;;5073308;28;20033;-52
2023/10/13 03:53:25;;;;;;;12.55;5.97;;;17.40;99.90;;;;;;5073961;28;20028;-53
2023/10/13 03:56:07;;;;;;;12.10;6.68;;;17.40;99.90;;;;;;5073575;28;20038;-50
2023/10/13 03:58:35;;;;;;;17.30;6.55;;;17.40;99.90;;;;;;5073518;28;20040;-50
2023/10/13 04:01:00;;;;;;;15.40;7.10;;;17.40;99.90;;;;;;5073917;28;20051;-51
2023/10/13 04:03:42;;;;;;;14.15;6.15;;;17.40;99.90;;;;;;5055343;28;20508;-52
2023/10/13 04:06:08;;;;;;;15.45;6.50;;;17.40;99.90;;;;;;5073788;28;20040;-54
2023/10/13 04:16:39;;;;;;;13.52;6.53;;;17.30;99.90;;;;;;5073293;28;20024;-53
2023/10/13 04:19:08;;;;;;;13.15;6.70;;;17.30;99.90;;;;;;5054888;28;20090;-51
2023/10/13 04:21:41;;;;;;;11.95;6.78;;;17.30;99.90;;;;;;5054856;28;20035;-52
2023/10/13 04:32:28;;;;;;;14.15;6.63;;;17.30;99.90;;;;;;5073021;28;20036;-52
2023/10/13 04:35:08;;;;;;;14.20;6.85;;;17.40;99.90;;;;;;5055558;28;20024;-54
2023/10/13 04:37:50;;;;;;;11.20;5.55;;;17.30;99.90;;;;;;5072732;28;20382;-51
2023/10/13 04:40:19;;;;;;;16.48;7.22;;;17.40;99.90;;;;;;5072683;28;20029;-54
2023/10/13 04:42:49;;;;;;;13.88;6.72;;;17.40;99.90;;;;;;5072647;28;20035;-53
2023/10/13 04:48:17;;;;;;;14.35;7.10;;;17.40;99.90;;;;;;5073130;28;20119;-53
2023/10/13 04:50:50;;;;;;;12.98;6.90;;;17.40;99.90;;;;;;5073109;28;20468;-55
2023/10/13 04:54:00;;;;;;;12.80;6.53;;;17.40;99.90;;;;;;5072626;28;20025;-54
2023/10/13 04:59:27;;;;;;;14.75;7.25;;;17.40;99.90;;;;;;5072566;28;20056;-55
2023/10/13 05:02:42;;;;;;;10.80;6.18;;;17.40;99.90;;;;;;5073255;28;20362;-53
2023/10/13 05:46:35;;;;;;;29.13;15.77;;;17.30;99.90;;;;;;5076441;28;20024;-53
2023/10/13 05:51:43;;;;;;;16.42;8.45;;;17.40;99.90;;;;;;5076203;28;20094;-53
2023/10/13 06:29:53;;;;;;;11.57;4.45;;;17.50;99.90;;;;;;5075474;28;20032;-54
2023/10/13 06:32:25;;;;;;;9.57;5.18;;;17.60;99.90;;;;;;5075631;28;20036;-55
2023/10/13 06:34:57;;;;;;;16.65;5.13;;;17.60;99.90;;;;;;5075459;28;20497;-51
2023/10/13 06:37:29;;;;;;;13.90;4.55;;;17.60;99.90;;;;;;5075736;28;20025;-56
2023/10/13 06:39:56;;;;;;;12.35;4.30;;;17.70;99.90;;;;;;5075277;28;20477;-54
2023/10/13 06:42:27;;;;;;;11.60;4.18;;;17.70;99.90;;;;;;5075068;28;20043;-53
2023/10/13 06:44:54;;;;;;;12.20;4.55;;;17.70;99.90;;;;;;5057387;28;20039;-54
2023/10/13 06:47:20;;;;;;;10.23;4.47;;;17.80;99.90;;;;;;5056643;28;20039;-55
2023/10/13 06:49:48;;;;;;;7.80;3.85;;;17.80;99.90;;;;;;5074886;28;20032;-56
2023/10/13 06:52:16;;;;;;;8.63;4.27;;;17.80;99.90;;;;;;5074692;28;20416;-51
2023/10/13 06:54:43;;;;;;;12.50;4.40;;;17.90;99.90;;;;;;5074744;28;20031;-54
2023/10/13 06:57:14;;;;;;;10.30;4.15;;;17.90;99.90;;;;;;5074776;28;20043;-52
2023/10/13 06:59:43;;;;;;;9.40;4.25;;;17.90;99.90;;;;;;5074933;28;20388;-53
2023/10/13 07:02:09;;;;;;;9.48;4.07;;;17.90;99.90;;;;;;5074194;28;20040;-55
2023/10/13 07:04:39;;;;;;;12.48;4.38;;;17.90;99.90;;;;;;5074082;28;20032;-54
2023/10/13 07:07:10;;;;;;;11.50;4.57;;;18.00;99.90;;;;;;5056809;28;20436;-54
2023/10/13 07:09:39;;;;;;;7.18;4.32;;;18.10;99.90;;;;;;5073700;28;20040;-53
2023/10/13 07:12:27;;;;;;;8.05;4.15;;;18.00;99.90;;;;;;5074005;28;20108;-54
2023/10/13 07:14:53;;;;;;;9.30;4.50;;;18.10;99.90;;;;;;5073832;28;20400;-55
2023/10/13 07:17:33;;;;;;;10.90;4.70;;;18.10;99.90;;;;;;5073677;28;20029;-54
2023/10/13 07:22:57;;;;;;;11.05;4.70;;;18.20;99.90;;;;;;5073861;28;20484;-56
2023/10/13 07:25:25;;;;;;;11.52;4.88;;;18.20;99.90;;;;;;5073393;28;20037;-56
2023/10/13 07:27:51;;;;;;;12.38;4.70;;;18.20;99.90;;;;;;5073892;28;20043;-54
2023/10/13 07:30:19;;;;;;;9.13;4.22;;;18.20;99.90;;;;;;5073542;28;20040;-51
2023/10/13 07:32:46;;;;;;;11.88;4.30;;;18.20;99.90;;;;;;5073242;28;20029;-56
2023/10/13 07:35:12;;;;;;;14.57;5.38;;;18.20;99.90;;;;;;5073307;28;20028;-55
2023/10/13 07:37:41;;;;;;;10.43;5.40;;;18.30;99.90;;;;;;5073744;28;20024;-54
2023/10/13 07:40:21;;;;;;;11.05;5.25;;;18.30;99.90;;;;;;5073135;28;20068;-56
2023/10/13 07:42:47;;;;;;;11.20;5.85;;;18.30;99.90;;;;;;5072896;28;20063;-55
2023/10/13 07:45:13;;;;;;;16.65;6.05;;;18.40;99.90;;;;;;5073510;28;20028;-54
2023/10/13 07:47:39;;;;;;;11.13;4.45;;;18.40;99.90;;;;;;5073214;28;20028;-56
2023/10/13 07:50:06;;;;;;;10.65;5.72;;;18.40;99.90;;;;;;5072915;28;20389;-55
2023/10/13 07:52:40;;;;;;;11.52;5.60;;;18.40;99.90;;;;;;5073296;28;20131;-55
2023/10/13 07:55:13;;;;;;;13.68;5.78;;;18.50;99.90;;;;;;5073570;28;20037;-55
2023/10/13 07:57:53;;;;;;;13.93;5.20;;;18.50;99.90;;;;;;5072731;28;20037;-54
2023/10/13 08:08:38;;;;;;;11.73;4.70;;;19.00;99.90;;;;;;5072405;28;20031;-53
2023/10/13 08:13:59;;;;;;;10.80;4.57;;;19.10;99.90;;;;;;5072351;28;20111;-54
2023/10/13 08:16:45;;;;;;;9.35;4.13;;;19.10;99.90;;;;;;5072927;28;20029;-55
2023/10/13 08:19:14;;;;;;;11.75;4.25;;;19.10;99.90;;;;;;5072260;28;20393;-53
2023/10/13 08:21:48;;;;;;;8.60;3.85;;;19.20;99.90;;;;;;5072886;28;20071;-55
2023/10/13 08:24:15;;;;;;;8.23;4.50;;;19.30;99.90;;;;;;5072539;28;20081;-55
2023/10/13 08:32:45;;;;;;;10.40;3.63;;;19.60;99.90;;;;;;5072249;28;20393;-53
2023/10/13 08:45:20;;;;;;;13.18;3.80;;;19.90;99.90;;;;;;5072385;28;20296;-51
2023/10/13 08:47:53;;;;;;;;;;;20.00;99.90;;;;;;5072997;28;20032;-55
2023/10/13 08:50:47;;;;;;;8.60;3.90;;;20.10;99.90;;;;;;5072071;28;19915;-56
2023/10/13 08:53:33;;;;;;;9.18;3.72;;;20.20;99.90;;;;;;5072401;28;20039;-56
2023/10/13 08:56:17;;;;;;;8.75;3.35;;;20.30;99.90;;;;;;5072104;28;20021;-54
2023/10/13 09:01:48;;;;;;;9.38;3.90;;;20.30;99.90;;;;;;5072268;28;20074;-53
2023/10/13 09:07:07;;;;;;;8.75;3.65;;;20.40;99.90;;;;;;5071933;28;20028;-56
2023/10/13 09:15:59;;;;;;;9.32;3.28;;;20.90;99.90;;;;;;5075801;28;20033;-56
2023/10/13 09:18:12;;;;;;;8.35;3.38;;;21.10;99.90;;;;;;5071101;28;20043;-53
2023/10/13 09:23:25;;;;;;;;;;;21.30;99.90;;;;;;5075823;28;20397;-53
2023/10/13 09:25:57;;;;;;;10.52;3.97;;;21.40;99.90;;;;;;5075425;28;19913;-54
2023/10/13 09:28:25;;;;;;;9.63;3.17;;;21.60;99.90;;;;;;5057212;28;20039;-56
2023/10/13 09:30:52;;;;;;;11.60;3.45;;;21.70;99.90;;;;;;5058154;28;20068;-53
2023/10/13 09:33:32;;;;;;;11.70;4.20;;;22.00;99.90;;;;;;5074984;28;20111;-50
2023/10/13 09:35:59;;;;;;;9.82;3.17;;;22.40;99.90;;;;;;5074941;28;20086;-53
2023/10/13 09:38:28;;;;;;;12.32;3.75;;;23.00;99.90;;;;;;5074733;28;20090;-54
2023/10/13 09:40:57;;;;;;;10.68;3.42;;;23.50;99.90;;;;;;5074988;28;20067;-53
2023/10/13 09:43:25;;;;;;;6.75;2.97;;;23.60;99.90;;;;;;5056933;28;20029;-54
2023/10/13 09:46:01;;;;;;;10.48;2.97;;;23.90;99.90;;;;;;5075448;28;20035;-57
2023/10/13 09:48:40;;;;;;;8.70;3.15;;;24.20;99.90;;;;;;5075419;28;20029;-51
2023/10/13 09:51:13;;;;;;;10.27;3.13;;;24.10;99.90;;;;;;5075425;28;20029;-55
2023/10/13 09:53:44;;;;;;;6.47;2.95;;;24.20;99.90;;;;;;5075369;28;20035;-54
2023/10/13 09:56:23;;;;;;;7.78;3.53;;;24.30;99.90;;;;;;5075328;28;20024;-52
2023/10/13 09:58:57;;;;;;;8.80;3.63;;;24.20;99.90;;;;;;5075075;28;20029;-51
2023/10/13 10:01:32;;;;;;;7.38;3.30;;;23.90;99.90;;;;;;5075111;28;20033;-52
2023/10/13 10:04:23;;;;;;;10.85;3.72;;;23.60;99.90;;;;;;5075009;28;20036;-55
2023/10/13 10:06:53;;;;;;;12.55;3.33;;;23.30;99.90;;;;;;5075294;28;20044;-54
2023/10/13 10:09:22;;;;;;;6.60;3.58;;;23.30;99.90;;;;;;5074793;28;20028;-53
2023/10/13 10:12:18;;;;;;;6.85;3.35;;;23.20;99.90;;;;;;5075061;28;20477;-52
2023/10/13 10:15:13;;;;;;;12.93;4.07;;;23.00;99.90;;;;;;5074699;28;20082;-54
2023/10/13 10:17:43;;;;;;;21.30;10.27;;;22.80;99.90;;;;;;5074982;28;20098;-52
2023/10/13 10:20:19;;;;;;;7.53;4.43;;;22.70;99.90;;;;;;5074566;28;20370;-52
2023/10/13 10:23:00;;;;;;;8.18;4.00;;;22.70;99.90;;;;;;5074579;28;20043;-51
2023/10/13 10:25:34;;;;;;;9.25;3.97;;;22.60;99.90;;;;;;5074788;28;20029;-51
2023/10/13 10:28:05;;;;;;;9.27;4.03;;;22.60;99.90;;;;;;5074577;28;20039;-50
2023/10/13 10:30:38;;;;;;;7.75;3.38;;;22.50;99.90;;;;;;5074799;28;20468;-53
2023/10/13 10:33:21;;;;;;;6.57;3.80;;;22.50;99.90;;;;;;5074300;28;20024;-50
2023/10/13 10:35:58;;;;;;;11.63;3.90;;;22.50;99.90;;;;;;5074637;28;20107;-53
2023/10/13 10:38:24;;;;;;;9.27;4.03;;;22.60;99.90;;;;;;5074078;28;20107;-50
2023/10/13 10:40:56;;;;;;;11.27;4.25;;;22.50;99.90;;;;;;5074154;28;20044;-53
2023/10/13 10:43:27;;;;;;;7.50;3.78;;;22.50;99.90;;;;;;5074437;28;20060;-54
2023/10/13 10:45:59;;;;;;;10.65;4.10;;;22.50;99.90;;;;;;5074780;28;20040;-53
2023/10/13 10:48:31;;;;;;;13.98;4.15;;;22.50;99.90;;;;;;5074015;28;20036;-53
2023/10/13 10:50:58;;;;;;;7.47;3.60;;;22.60;99.90;;;;;;5056144;28;20037;-54
2023/10/13 10:53:33;;;;;;;9.75;3.80;;;22.60;99.90;;;;;;5074117;28;20074;-51
2023/10/13 10:56:19;;;;;;;9.10;3.35;;;22.70;99.90;;;;;;5074060;28;20020;-53
2023/10/13 10:58:46;;;;;;;12.45;4.15;;;22.60;99.90;;;;;;5055913;28;20033;-55
2023/10/13 11:01:18;;;;;;;8.50;3.92;;;22.70;99.90;;;;;;5056273;28;20032;-50
2023/10/13 11:03:57;;;;;;;8.88;3.80;;;22.70;99.90;;;;;;5073334;28;20455;-55
2023/10/13 11:06:25;;;;;;;9.55;4.53;;;22.70;99.90;;;;;;5055624;28;20036;-52
2023/10/13 11:09:19;;;;;;;;;;;22.70;99.90;;;;;;5074188;28;20051;-53
2023/10/13 11:11:46;;;;;;;8.00;3.83;;;22.80;99.90;;;;;;5073653;28;19912;-54
2023/10/13 11:14:28;;;;;;;8.23;4.07;;;22.80;99.90;;;;;;5073609;28;20032;-49
2023/10/13 11:17:05;;;;;;;9.23;3.83;;;22.80;99.90;;;;;;5073742;28;20028;-52
2023/10/13 11:19:35;;;;;;;8.60;4.40;;;22.90;99.90;;;;;;5073742;28;20051;-53
2023/10/13 11:22:36;;;;;;;10.27;4.20;;;23.00;99.90;;;;;;5074092;28;20124;-51
2023/10/13 11:25:10;;;;;;;8.45;4.13;;;23.00;99.90;;;;;;5073575;28;20043;-53
2023/10/13 11:30:19;;;;;;;11.40;3.70;;;23.10;99.90;;;;;;5074054;28;20024;-50
2023/10/13 11:33:05;;;;;;;10.32;3.30;;;23.30;99.90;;;;;;5073730;28;20040;-49
2023/10/13 11:35:48;;;;;;;9.05;3.83;;;23.60;99.90;;;;;;5055772;28;20124;-53
2023/10/13 11:38:24;;;;;;;6.88;4.22;;;23.90;99.90;;;;;;5074085;28;20166;-53
2023/10/13 11:49:17;;;;;;;9.73;3.42;;;24.90;99.90;;;;;;5073351;28;20473;-51
2023/10/13 11:51:47;;;;;;;8.10;4.07;;;24.70;99.90;;;;;;5073401;28;20483;-54
2023/10/13 11:54:17;;;;;;;10.73;3.55;;;24.50;99.90;;;;;;5073098;28;20311;-50
2023/10/13 11:56:47;;;;;;;10.55;3.90;;;24.40;99.90;;;;;;5073243;28;20215;-53
2023/10/13 11:59:24;;;;;;;9.15;3.38;;;24.40;99.90;;;;;;5055079;28;20032;-52
2023/10/13 12:04:49;;;;;;;10.60;3.50;;;24.20;99.90;;;;;;5073116;28;20162;-53
2023/10/13 12:09:51;;;;;;;10.32;3.50;;;24.20;99.90;;;;;;5054952;28;20035;-51
2023/10/13 12:12:17;;;;;;;9.27;3.50;;;24.30;99.90;;;;;;5073118;28;20452;-51
2023/10/13 12:14:52;;;;;;;7.72;3.15;;;24.30;99.90;;;;;;5054997;28;20075;-50
2023/10/13 12:17:39;;;;;;;9.15;3.35;;;24.30;99.90;;;;;;5073147;28;20031;-55
2023/10/13 12:20:17;;;;;;;11.65;3.53;;;24.40;99.90;;;;;;5073320;28;20040;-51
2023/10/13 12:22:43;;;;;;;10.68;4.60;;;24.40;99.90;;;;;;5072827;28;20090;-51
2023/10/13 12:25:24;;;;;;;12.20;4.97;;;24.40;99.90;;;;;;5072885;28;20456;-51
2023/10/13 12:27:56;;;;;;;9.13;3.22;;;24.40;99.90;;;;;;5072678;28;20036;-56
2023/10/13 12:30:48;;;;;;;10.25;3.25;;;24.40;99.90;;;;;;5072798;28;20058;-54
2023/10/13 12:33:16;;;;;;;6.97;2.90;;;24.40;99.90;;;;;;5072667;28;20035;-52
2023/10/13 12:36:03;;;;;;;11.18;3.35;;;24.40;99.90;;;;;;5073609;28;20036;-49
2023/10/13 12:52:16;;;;;;;11.40;3.43;;;24.20;99.90;;;;;;5077197;28;20037;-55
2023/10/13 12:54:47;;;;;;;8.30;3.35;;;24.20;99.90;;;;;;5077016;28;20512;-51
2023/10/13 12:57:15;;;;;;;11.77;3.10;;;24.30;99.90;;;;;;5077061;28;20516;-53
2023/10/13 12:59:42;;;;;;;11.00;3.40;;;24.20;99.90;;;;;;5076600;28;20488;-51
2023/10/13 13:02:14;;;;;;;11.68;2.92;;;24.20;99.90;;;;;;5077519;28;20488;-54
2023/10/13 13:04:43;;;;;;;8.10;2.72;;;24.20;99.90;;;;;;5076719;28;20032;-54
2023/10/13 13:07:13;;;;;;;9.80;3.72;;;24.20;99.90;;;;;;5077909;28;20102;-55
2023/10/13 13:09:42;;;;;;;11.93;3.53;;;24.10;99.90;;;;;;5076810;28;20035;-55
2023/10/13 13:12:12;;;;;;;12.07;3.03;;;24.10;99.90;;;;;;5077297;28;20021;-55
2023/10/13 13:14:41;;;;;;;8.55;3.10;;;24.00;99.90;;;;;;5077044;28;20378;-55
2023/10/13 13:17:06;;;;;;;13.38;3.90;;;24.10;99.90;;;;;;5076701;28;20067;-55
2023/10/13 13:19:38;;;;;;;10.43;3.85;;;24.10;99.90;;;;;;5076212;28;20029;-55
2023/10/13 13:22:09;;;;;;;11.25;3.13;;;24.10;99.90;;;;;;5076706;28;20056;-55
2023/10/13 13:24:35;;;;;;;13.15;3.28;;;24.20;99.90;;;;;;5077322;28;20043;-53
2023/10/13 13:27:02;;;;;;;8.55;3.20;;;24.20;99.90;;;;;;5077017;28;20036;-55
2023/10/13 13:29:29;;;;;;;12.47;3.57;;;24.20;99.90;;;;;;5076814;28;20032;-54
2023/10/13 13:31:55;;;;;;;9.82;2.90;;;24.20;99.90;;;;;;5077133;28;20139;-55
2023/10/13 13:34:21;;;;;;;11.95;3.72;;;24.10;99.90;;;;;;5076290;28;20473;-55
2023/10/13 13:36:52;;;;;;;10.45;4.07;;;24.10;99.90;;;;;;5075975;28;20546;-54
2023/10/13 13:39:28;;;;;;;10.52;3.17;;;24.00;99.90;;;;;;5074656;28;20396;-51
2023/10/13 13:41:56;;;;;;;12.27;3.45;;;24.00;99.90;;;;;;5075021;28;20037;-54
2023/10/13 13:44:35;;;;;;;9.02;3.00;;;24.00;99.90;;;;;;5074599;28;20428;-54
2023/10/13 13:47:11;;;;;;;12.73;3.22;;;23.90;99.90;;;;;;5074927;28;20064;-53
2023/10/13 13:49:40;;;;;;;9.68;3.33;;;23.90;99.90;;;;;;5074858;28;20054;-53
2023/10/13 13:52:07;;;;;;;8.27;2.83;;;23.80;99.90;;;;;;5075128;28;20074;-54
2023/10/13 13:54:33;;;;;;;7.80;3.05;;;23.80;99.90;;;;;;5074715;28;20377;-52
2023/10/13 13:56:58;;;;;;;9.52;3.17;;;23.80;99.90;;;;;;5073799;28;20047;-50
2023/10/13 13:59:24;;;;;;;9.65;3.00;;;23.80;99.90;;;;;;5074705;28;20115;-54
2023/10/13 14:01:52;;;;;;;8.05;3.22;;;23.80;99.90;;;;;;5075058;28;20073;-55
2023/10/13 14:04:18;;;;;;;7.88;2.95;;;23.80;99.90;;;;;;5056580;28;20035;-55
2023/10/13 14:06:44;;;;;;;11.88;3.20;;;23.80;99.90;;;;;;5074812;28;20028;-49
2023/10/13 14:09:14;;;;;;;8.75;3.22;;;23.90;99.90;;;;;;5074505;28;20040;-55
2023/10/13 14:14:28;;;;;;;10.77;3.15;;;23.80;99.90;;;;;;5074555;28;20469;-54
2023/10/13 14:17:03;;;;;;;7.72;3.08;;;23.80;99.90;;;;;;5074504;28;20413;-50
2023/10/13 14:19:28;;;;;;;9.63;3.72;;;23.70;99.90;;;;;;5074455;28;20032;-54
2023/10/13 14:21:58;;;;;;;7.43;3.45;;;23.70;99.90;;;;;;5074597;28;20044;-55
2023/10/13 14:24:34;;;;;;;14.00;6.25;;;23.70;99.90;;;;;;5074268;28;20074;-55
2023/10/13 14:27:08;;;;;;;18.25;8.70;;;23.60;99.90;;;;;;5074557;28;20094;-54
2023/10/13 14:29:40;;;;;;;10.65;3.55;;;23.50;99.90;;;;;;5073676;28;20094;-54
2023/10/13 14:32:15;;;;;;;12.70;3.78;;;23.50;99.90;;;;;;5074492;28;20111;-54
2023/10/13 14:34:41;;;;;;;12.75;4.32;;;23.50;99.90;;;;;;5074256;28;20025;-54
2023/10/13 14:37:07;;;;;;;8.85;3.70;;;23.50;99.90;;;;;;5074338;28;20067;-54
2023/10/13 14:39:35;;;;;;;18.65;6.07;;;23.50;99.90;;;;;;5073919;28;20021;-53
2023/10/13 14:42:05;;;;;;;17.83;7.53;;;23.40;99.90;;;;;;5074506;28;20074;-52
2023/10/13 14:44:34;;;;;;;21.02;8.52;;;23.40;99.90;;;;;;5073777;28;20777;-50
2023/10/13 14:47:01;;;;;;;12.38;3.95;;;23.30;99.90;;;;;;5074411;28;20032;-51
2023/10/13 14:49:27;;;;;;;11.27;4.10;;;23.30;99.90;;;;;;5074105;28;20544;-54
2023/10/13 14:51:55;;;;;;;11.90;3.38;;;23.20;99.90;;;;;;5073843;28;20032;-54
2023/10/13 14:54:33;;;;;;;11.00;3.20;;;23.20;99.90;;;;;;5074082;28;20036;-54
2023/10/13 14:56:59;;;;;;;;;;;23.20;99.90;;;;;;5074803;28;20075;-53
2023/10/13 14:59:25;;;;;;;8.77;3.38;;;23.10;99.90;;;;;;5073693;28;20280;-53
2023/10/13 15:01:51;;;;;;;8.65;2.67;;;23.10;99.90;;;;;;5074012;28;20031;-54
2023/10/13 15:04:16;;;;;;;7.43;3.25;;;23.00;99.90;;;;;;5073592;28;20243;-49
2023/10/13 15:06:43;;;;;;;9.00;3.55;;;23.10;99.90;;;;;;5073371;28;20036;-51
2023/10/13 15:09:11;;;;;;;9.85;3.03;;;23.00;99.90;;;;;;5073918;28;20105;-54
2023/10/13 15:11:37;;;;;;;14.50;3.72;;;23.00;99.90;;;;;;5073439;28;20021;-55
2023/10/13 15:14:04;;;;;;;9.20;3.33;;;23.00;99.90;;;;;;5073342;28;20115;-52
2023/10/13 15:16:29;;;;;;;6.85;3.08;;;22.90;99.90;;;;;;5073359;28;20040;-54
2023/10/13 15:18:55;;;;;;;9.25;2.75;;;22.90;99.90;;;;;;5073187;28;20496;-54
2023/10/13 15:21:22;;;;;;;14.73;3.30;;;22.90;99.90;;;;;;5073597;28;20033;-54
2023/10/13 15:23:51;;;;;;;8.70;3.53;;;22.90;99.90;;;;;;5072632;28;20039;-54
2023/10/13 15:26:17;;;;;;;;;;;22.80;99.90;;;;;;5073840;28;20040;-55
2023/10/13 15:28:49;;;;;;;10.65;3.75;;;22.80;99.90;;;;;;5073064;28;19915;-54
2023/10/13 15:31:37;;;;;;;9.98;3.63;;;22.70;99.90;;;;;;5072955;28;20055;-54
2023/10/13 15:34:12;;;;;;;13.40;3.92;;;22.80;99.90;;;;;;5072661;28;20029;-51
2023/10/13 15:36:40;;;;;;;7.72;3.50;;;22.80;99.90;;;;;;5073195;28;20066;-52
2023/10/13 15:39:15;;;;;;;9.45;3.28;;;22.80;99.90;;;;;;5072737;28;20058;-53
2023/10/13 15:41:41;;;;;;;10.00;4.18;;;22.80;99.90;;;;;;5072611;28;20036;-53
2023/10/13 15:44:13;;;;;;;11.45;3.58;;;22.70;99.90;;;;;;5072508;28;20389;-49
2023/10/13 15:46:39;;;;;;;12.95;3.30;;;22.70;99.90;;;;;;5072673;28;20028;-54
2023/10/13 15:49:08;;;;;;;11.25;3.22;;;22.70;99.90;;;;;;5072550;28;20036;-54
2023/10/13 15:51:36;;;;;;;;;;;22.70;99.90;;;;;;5073688;28;20089;-54
2023/10/13 15:54:02;;;;;;;7.13;2.40;;;22.70;99.90;;;;;;5072734;28;20050;-54
2023/10/13 15:56:32;;;;;;;12.32;3.95;;;22.60;99.90;;;;;;5073076;28;20074;-54
2023/10/13 15:59:01;;;;;;;11.38;3.78;;;22.60;99.90;;;;;;5072446;28;20398;-50
2023/10/13 16:01:28;;;;;;;11.75;4.00;;;22.60;99.90;;;;;;5072554;28;20036;-50
2023/10/13 16:03:54;;;;;;;10.93;4.05;;;22.50;99.90;;;;;;5072855;28;20047;-53
2023/10/13 16:06:19;;;;;;;9.32;3.42;;;22.50;99.90;;;;;;5054997;28;20119;-53
2023/10/13 16:08:45;;;;;;;6.80;3.00;;;22.40;99.90;;;;;;5072568;28;20044;-52
2023/10/13 16:11:18;;;;;;;8.45;3.25;;;22.40;99.90;;;;;;5072887;28;20493;-53
2023/10/13 16:13:45;;;;;;;5.97;3.10;;;22.40;99.90;;;;;;5073125;28;20024;-50
2023/10/13 16:16:18;;;;;;;9.18;2.92;;;22.40;99.90;;;;;;5073096;28;20029;-52